Time;durP1;ratioP1;P1;durP2;ratioP2;P2;SDS_P1;SDS_P2;PMS_P1;PMS_P2;Temp;Humidity;BMP_temperature;BMP_pressure;BME280_temperature;BME280_humidity;BME280_pressure;Samples;Min_cycle;Max_cycle;Signal;HPM_P1;HPM_P2
2021/08/16 00:02:07;;;;;;;8.53;5.10;;;;;;;;;;2636794;30;20377;-79
2021/08/16 00:04:33;;;;;;;15.33;5.40;;;;;;;;;;2634633;30;20374;-79
2021/08/16 00:07:00;;;;;;;9.37;4.67;;;;;;;;;;2634024;30;20351;-79
2021/08/16 00:09:26;;;;;;;5.77;4.77;;;;;;;;;;2637069;30;20354;-78
2021/08/16 00:11:53;;;;;;;4.73;4.23;;;;;;;;;;2632242;30;21124;-79
2021/08/16 00:14:19;;;;;;;4.77;4.27;;;;;;;;;;2633114;38;20418;-79
2021/08/16 00:16:46;;;;;;;7.07;3.80;;;;;;;;;;2633358;30;20474;-78
2021/08/16 00:19:13;;;;;;;12.10;4.87;;;;;;;;;;2633151;38;20435;-79
2021/08/16 00:21:40;;;;;;;6.30;3.97;;;;;;;;;;2634266;30;20373;-80
2021/08/16 00:24:06;;;;;;;7.13;4.73;;;;;;;;;;2634671;38;20429;-78
2021/08/16 00:26:32;;;;;;;4.30;3.47;;;;;;;;;;2636399;38;20843;-79
2021/08/16 00:28:59;;;;;;;4.50;3.30;;;;;;;;;;2636310;30;20377;-79
2021/08/16 00:31:29;;;;;;;10.40;3.53;;;;;;;;;;2636565;38;20381;-81
2021/08/16 00:33:56;;;;;;;6.50;3.70;;;;;;;;;;2635380;30;21371;-79
2021/08/16 00:36:23;;;;;;;5.40;2.27;;;;;;;;;;2637870;30;20405;-80
2021/08/16 00:38:49;;;;;;;3.37;2.80;;;;;;;;;;2640641;38;20382;-79
2021/08/16 00:41:17;;;;;;;7.87;2.80;;;;;;;;;;2636226;30;20399;-80
2021/08/16 00:43:43;;;;;;;4.20;3.20;;;;;;;;;;2639255;30;20361;-80
2021/08/16 00:46:09;;;;;;;3.70;3.20;;;;;;;;;;2639208;30;21199;-80
2021/08/16 00:48:36;;;;;;;6.40;3.20;;;;;;;;;;2636396;30;20401;-79
2021/08/16 00:51:03;;;;;;;7.30;3.30;;;;;;;;;;2637944;30;20380;-80
2021/08/16 00:53:30;;;;;;;5.93;3.10;;;;;;;;;;2637293;30;20466;-81
2021/08/16 00:55:57;;;;;;;3.57;2.50;;;;;;;;;;2642047;30;20408;-80
2021/08/16 00:58:23;;;;;;;9.00;3.20;;;;;;;;;;2637549;30;20875;-80
2021/08/16 01:00:55;;;;;;;4.47;3.27;;;;;;;;;;2640304;30;20378;-79
2021/08/16 01:03:21;;;;;;;7.87;3.87;;;;;;;;;;2638354;30;20512;-80
2021/08/16 01:05:47;;;;;;;5.10;3.30;;;;;;;;;;2637446;30;20385;-80
2021/08/16 01:08:13;;;;;;;3.43;2.47;;;;;;;;;;2636994;30;20411;-80
2021/08/16 01:10:41;;;;;;;5.70;4.00;;;;;;;;;;2640761;38;20370;-81
2021/08/16 01:13:07;;;;;;;7.37;3.50;;;;;;;;;;2638044;38;20413;-79
2021/08/16 01:15:35;;;;;;;7.80;3.97;;;;;;;;;;2639656;30;20409;-80
2021/08/16 01:18:02;;;;;;;9.10;4.37;;;;;;;;;;2635397;30;20375;-79
2021/08/16 01:20:28;;;;;;;7.63;4.87;;;;;;;;;;2638926;30;21293;-80
2021/08/16 01:22:56;;;;;;;12.83;5.87;;;;;;;;;;2637162;30;20405;-79
2021/08/16 01:25:22;;;;;;;12.77;5.37;;;;;;;;;;2660120;30;20417;-81
2021/08/16 01:27:48;;;;;;;11.93;5.93;;;;;;;;;;2641393;38;20414;-80
2021/08/16 01:30:16;;;;;;;10.00;5.50;;;;;;;;;;2639072;38;20385;-81
2021/08/16 01:32:42;;;;;;;13.40;5.77;;;;;;;;;;2638875;38;20385;-80
2021/08/16 01:35:08;;;;;;;16.43;5.50;;;;;;;;;;2639550;38;20381;-79
2021/08/16 01:37:35;;;;;;;10.70;5.20;;;;;;;;;;2639197;30;20410;-80
2021/08/16 01:40:01;;;;;;;8.03;4.20;;;;;;;;;;2639281;30;20386;-80
2021/08/16 01:42:28;;;;;;;11.33;4.90;;;;;;;;;;2640366;38;20551;-80
2021/08/16 01:44:54;;;;;;;10.33;5.10;;;;;;;;;;2638463;38;20862;-79
2021/08/16 01:47:20;;;;;;;9.30;4.93;;;;;;;;;;2645176;30;20351;-79
2021/08/16 01:49:47;;;;;;;8.40;5.07;;;;;;;;;;2636182;30;20386;-79
2021/08/16 01:52:13;;;;;;;7.17;4.07;;;;;;;;;;2636466;38;20393;-80
2021/08/16 01:54:40;;;;;;;11.50;4.73;;;;;;;;;;2638697;30;20389;-79
2021/08/16 01:57:06;;;;;;;11.27;4.33;;;;;;;;;;2636883;30;20890;-79
2021/08/16 01:59:32;;;;;;;9.50;4.27;;;;;;;;;;2636202;30;20379;-79
2021/08/16 02:01:58;;;;;;;10.57;3.17;;;;;;;;;;2638763;30;20378;-79
2021/08/16 02:04:24;;;;;;;7.53;3.57;;;;;;;;;;2638014;30;20555;-79
2021/08/16 02:06:51;;;;;;;11.47;3.40;;;;;;;;;;2638518;38;20363;-79
2021/08/16 02:09:17;;;;;;;6.87;3.37;;;;;;;;;;2638633;30;20407;-79
2021/08/16 02:11:43;;;;;;;5.47;2.90;;;;;;;;;;2635077;38;21007;-79
2021/08/16 02:14:09;;;;;;;8.80;5.03;;;;;;;;;;2639418;30;20390;-80
2021/08/16 02:16:35;;;;;;;5.97;3.30;;;;;;;;;;2640862;30;20373;-80
2021/08/16 02:19:02;;;;;;;8.30;5.33;;;;;;;;;;2644265;38;20415;-80
2021/08/16 02:21:28;;;;;;;6.70;3.10;;;;;;;;;;2636289;38;20394;-79
2021/08/16 02:23:54;;;;;;;9.40;3.70;;;;;;;;;;2638139;30;20398;-79
2021/08/16 02:26:21;;;;;;;10.07;3.60;;;;;;;;;;2641041;38;20502;-80
2021/08/16 02:28:48;;;;;;;6.50;4.07;;;;;;;;;;2638548;30;20426;-80
2021/08/16 02:31:14;;;;;;;7.67;3.00;;;;;;;;;;2644056;30;20394;-80
2021/08/16 02:33:40;;;;;;;13.40;3.63;;;;;;;;;;2637458;38;20387;-79
2021/08/16 02:36:06;;;;;;;5.30;2.97;;;;;;;;;;2633699;30;20530;-79
2021/08/16 02:38:32;;;;;;;8.17;3.70;;;;;;;;;;2635262;38;20472;-79
2021/08/16 02:40:58;;;;;;;7.47;3.70;;;;;;;;;;2638030;30;20398;-81
2021/08/16 02:43:28;;;;;;;6.00;3.40;;;;;;;;;;2633914;38;20490;-79
2021/08/16 02:45:54;;;;;;;10.03;3.60;;;;;;;;;;2634711;38;20858;-78
2021/08/16 02:48:21;;;;;;;5.50;3.07;;;;;;;;;;2639892;38;20421;-79
2021/08/16 02:50:47;;;;;;;10.97;2.90;;;;;;;;;;2636233;31;20461;-80
2021/08/16 02:53:13;;;;;;;3.63;3.10;;;;;;;;;;2639548;30;20367;-80
2021/08/16 02:55:39;;;;;;;4.63;3.77;;;;;;;;;;2635246;38;20373;-79
2021/08/16 02:58:05;;;;;;;7.47;5.00;;;;;;;;;;2645077;30;20450;-79
2021/08/16 03:00:32;;;;;;;8.50;4.63;;;;;;;;;;2637781;30;20419;-79
2021/08/16 03:02:59;;;;;;;12.03;5.23;;;;;;;;;;2633666;30;20386;-80
2021/08/16 03:05:25;;;;;;;9.83;4.10;;;;;;;;;;2641964;30;20405;-80
2021/08/16 03:07:51;;;;;;;9.53;4.43;;;;;;;;;;2643119;30;20430;-79
2021/08/16 03:10:18;;;;;;;8.57;4.93;;;;;;;;;;2640764;38;20412;-79
2021/08/16 03:12:45;;;;;;;7.00;4.77;;;;;;;;;;2635533;30;20380;-79
2021/08/16 03:15:12;;;;;;;10.13;4.27;;;;;;;;;;2641646;30;21326;-79
2021/08/16 03:17:38;;;;;;;11.63;4.43;;;;;;;;;;2637754;38;20387;-78
2021/08/16 03:20:05;;;;;;;8.30;4.30;;;;;;;;;;2635544;30;20393;-79
2021/08/16 03:22:32;;;;;;;7.43;4.70;;;;;;;;;;2635558;38;20368;-78
2021/08/16 03:24:58;;;;;;;7.30;4.47;;;;;;;;;;2638712;38;20396;-80
2021/08/16 03:27:24;;;;;;;12.00;5.80;;;;;;;;;;2638584;38;20372;-80
2021/08/16 03:29:51;;;;;;;10.23;5.07;;;;;;;;;;2635446;38;20361;-80
2021/08/16 03:32:17;;;;;;;11.10;7.07;;;;;;;;;;2636236;30;20791;-80
2021/08/16 03:34:44;;;;;;;11.53;5.93;;;;;;;;;;2635165;38;20366;-80
2021/08/16 03:37:11;;;;;;;9.57;7.10;;;;;;;;;;2639780;30;20353;-81
2021/08/16 03:39:39;;;;;;;12.80;6.60;;;;;;;;;;2646340;30;20392;-81
2021/08/16 03:42:05;;;;;;;7.90;5.87;;;;;;;;;;2638974;30;20382;-80
2021/08/16 03:44:31;;;;;;;9.60;6.30;;;;;;;;;;2637756;30;21266;-81
2021/08/16 03:46:58;;;;;;;7.40;4.60;;;;;;;;;;2641398;31;20362;-80
2021/08/16 03:49:24;;;;;;;14.37;5.57;;;;;;;;;;2635548;38;20370;-81
2021/08/16 03:51:50;;;;;;;9.17;5.50;;;;;;;;;;2638696;30;20388;-80
2021/08/16 03:54:16;;;;;;;12.43;5.37;;;;;;;;;;2636115;30;20794;-80
2021/08/16 03:56:42;;;;;;;8.77;5.63;;;;;;;;;;2638249;30;20416;-80
2021/08/16 03:59:27;;;;;;;9.63;5.27;;;;;;;;;;2636366;30;20385;-81
2021/08/16 04:01:53;;;;;;;8.43;5.20;;;;;;;;;;2638992;30;20398;-80
2021/08/16 04:04:19;;;;;;;12.63;6.67;;;;;;;;;;2637169;30;20416;-80
2021/08/16 04:06:45;;;;;;;13.33;8.00;;;;;;;;;;2634911;38;20408;-80
2021/08/16 04:09:12;;;;;;;8.23;5.60;;;;;;;;;;2636030;38;20475;-80
2021/08/16 04:11:38;;;;;;;15.17;6.47;;;;;;;;;;2634991;38;20937;-80
2021/08/16 04:14:06;;;;;;;9.40;6.00;;;;;;;;;;2641420;30;20480;-80
2021/08/16 04:16:32;;;;;;;12.63;6.53;;;;;;;;;;2635525;30;20387;-79
2021/08/16 04:18:58;;;;;;;11.37;6.23;;;;;;;;;;2637097;38;20591;-79
2021/08/16 04:21:24;;;;;;;12.97;5.90;;;;;;;;;;2639952;30;20867;-80
2021/08/16 04:23:50;;;;;;;11.43;6.57;;;;;;;;;;2637021;30;20476;-80
2021/08/16 04:26:16;;;;;;;11.83;6.33;;;;;;;;;;2637201;30;21242;-80
2021/08/16 04:28:42;;;;;;;13.10;5.90;;;;;;;;;;2636093;30;20364;-80
2021/08/16 04:31:09;;;;;;;9.70;6.53;;;;;;;;;;2635996;30;20381;-78
2021/08/16 04:33:35;;;;;;;11.97;7.50;;;;;;;;;;2636129;30;20400;-78
2021/08/16 04:36:01;;;;;;;11.47;5.97;;;;;;;;;;2634619;30;20381;-78
2021/08/16 04:38:27;;;;;;;10.07;6.43;;;;;;;;;;2634817;30;20378;-80
2021/08/16 04:40:53;;;;;;;10.67;7.20;;;;;;;;;;2633796;30;20949;-78
2021/08/16 04:43:20;;;;;;;12.40;6.80;;;;;;;;;;2633042;38;20376;-78
2021/08/16 04:45:46;;;;;;;18.87;6.23;;;;;;;;;;2633871;46;20398;-79
2021/08/16 04:48:13;;;;;;;9.43;6.80;;;;;;;;;;2636494;30;20394;-78
2021/08/16 04:50:40;;;;;;;13.13;6.70;;;;;;;;;;2637225;38;20361;-81
2021/08/16 04:53:07;;;;;;;8.73;5.90;;;;;;;;;;2638056;30;20360;-80
2021/08/16 04:55:34;;;;;;;20.03;5.83;;;;;;;;;;2635215;30;20370;-80
2021/08/16 04:58:00;;;;;;;10.43;7.00;;;;;;;;;;2634382;30;20368;-79
2021/08/16 05:00:26;;;;;;;17.30;6.57;;;;;;;;;;2634125;30;20376;-79
2021/08/16 05:02:58;;;;;;;11.27;6.33;;;;;;;;;;2634916;30;20385;-80
2021/08/16 05:05:28;;;;;;;8.27;6.20;;;;;;;;;;2634353;30;20439;-79
2021/08/16 05:07:55;;;;;;;10.77;6.00;;;;;;;;;;2634968;30;20388;-79
2021/08/16 05:10:22;;;;;;;9.73;6.50;;;;;;;;;;2634034;30;20370;-79
2021/08/16 05:12:49;;;;;;;14.53;7.30;;;;;;;;;;2636668;30;20393;-79
2021/08/16 05:15:15;;;;;;;13.00;9.00;;;;;;;;;;2634392;30;21141;-79
2021/08/16 05:17:42;;;;;;;12.10;6.07;;;;;;;;;;2636209;38;20379;-79
2021/08/16 05:20:10;;;;;;;10.50;8.00;;;;;;;;;;2638174;30;20481;-79
2021/08/16 05:22:37;;;;;;;20.97;7.87;;;;;;;;;;2633729;30;20885;-78
2021/08/16 05:25:05;;;;;;;24.13;6.77;;;;;;;;;;2634952;30;20405;-79
2021/08/16 05:27:31;;;;;;;11.70;6.57;;;;;;;;;;2633573;30;20932;-78
2021/08/16 05:29:57;;;;;;;8.93;6.93;;;;;;;;;;2633710;30;20368;-79
2021/08/16 05:32:23;;;;;;;11.60;5.97;;;;;;;;;;2634918;38;20388;-79
2021/08/16 05:34:49;;;;;;;11.93;6.83;;;;;;;;;;2632302;30;20413;-78
2021/08/16 05:37:15;;;;;;;11.40;6.37;;;;;;;;;;2633327;30;20386;-80
2021/08/16 05:39:42;;;;;;;12.50;6.60;;;;;;;;;;2634015;30;21074;-78
2021/08/16 05:42:08;;;;;;;14.97;7.17;;;;;;;;;;2633071;30;20560;-79
2021/08/16 05:44:34;;;;;;;11.93;6.37;;;;;;;;;;2633222;30;20510;-78
2021/08/16 05:47:05;;;;;;;14.80;7.40;;;;;;;;;;2633097;38;20934;-78
2021/08/16 05:49:32;;;;;;;9.33;5.97;;;;;;;;;;2635563;30;20516;-79
2021/08/16 05:51:58;;;;;;;10.77;6.53;;;;;;;;;;2634685;30;20410;-79
2021/08/16 05:54:24;;;;;;;8.00;5.73;;;;;;;;;;2634818;38;20418;-78
2021/08/16 05:56:51;;;;;;;20.53;6.97;;;;;;;;;;2633325;30;20944;-78
2021/08/16 05:59:17;;;;;;;15.90;6.80;;;;;;;;;;2635778;30;20373;-79
2021/08/16 06:01:43;;;;;;;16.83;7.07;;;;;;;;;;2633722;38;20370;-78
2021/08/16 06:04:09;;;;;;;13.00;6.87;;;;;;;;;;2636734;30;20365;-78
2021/08/16 06:06:36;;;;;;;8.00;7.23;;;;;;;;;;2633651;30;20372;-79
2021/08/16 06:09:03;;;;;;;16.63;7.63;;;;;;;;;;2632438;30;20367;-79
2021/08/16 06:11:29;;;;;;;10.40;7.73;;;;;;;;;;2638294;30;20406;-80
2021/08/16 06:13:55;;;;;;;23.10;7.97;;;;;;;;;;2632375;30;20501;-80
2021/08/16 06:16:23;;;;;;;18.40;6.87;;;;;;;;;;2634584;38;20406;-80
2021/08/16 06:18:49;;;;;;;14.20;7.80;;;;;;;;;;2638194;30;20362;-79
2021/08/16 06:21:15;;;;;;;9.97;8.40;;;;;;;;;;2637972;30;20526;-80
2021/08/16 06:23:42;;;;;;;19.07;6.10;;;;;;;;;;2635411;30;20368;-79
2021/08/16 06:26:08;;;;;;;11.80;7.63;;;;;;;;;;2633267;38;20360;-81
2021/08/16 06:28:35;;;;;;;11.77;6.67;;;;;;;;;;2633503;30;20386;-80
2021/08/16 06:31:01;;;;;;;11.10;6.80;;;;;;;;;;2633312;30;20370;-81
2021/08/16 06:33:27;;;;;;;10.40;8.40;;;;;;;;;;2633828;30;20378;-79
2021/08/16 06:35:54;;;;;;;13.53;6.50;;;;;;;;;;2634005;38;20375;-79
2021/08/16 06:38:24;;;;;;;11.50;6.80;;;;;;;;;;2633635;38;20536;-80
2021/08/16 06:40:52;;;;;;;12.17;7.37;;;;;;;;;;2634375;30;20377;-81
2021/08/16 06:43:18;;;;;;;20.37;7.63;;;;;;;;;;2635537;30;20377;-80
2021/08/16 06:45:44;;;;;;;11.57;7.40;;;;;;;;;;2634424;30;20365;-81
2021/08/16 06:48:11;;;;;;;14.60;8.50;;;;;;;;;;2634729;30;20377;-79
2021/08/16 06:50:38;;;;;;;9.83;7.30;;;;;;;;;;2634710;30;20367;-81
2021/08/16 06:53:05;;;;;;;10.50;5.70;;;;;;;;;;2638370;30;20933;-79
2021/08/16 06:55:31;;;;;;;11.63;6.57;;;;;;;;;;2635523;30;20392;-80
2021/08/16 06:57:57;;;;;;;8.03;5.70;;;;;;;;;;2634050;31;20385;-81
2021/08/16 07:00:24;;;;;;;13.00;4.47;;;;;;;;;;2632534;38;20377;-80
2021/08/16 07:02:50;;;;;;;16.13;5.77;;;;;;;;;;2633963;38;21217;-81
2021/08/16 07:05:17;;;;;;;14.00;5.30;;;;;;;;;;2633764;30;20397;-81
2021/08/16 07:07:43;;;;;;;7.70;4.30;;;;;;;;;;2631444;38;20389;-78
2021/08/16 07:10:09;;;;;;;8.63;4.40;;;;;;;;;;2631281;30;20380;-78
2021/08/16 07:12:36;;;;;;;9.33;4.07;;;;;;;;;;2631735;30;20413;-79
2021/08/16 07:15:03;;;;;;;6.50;4.70;;;;;;;;;;2630819;30;20391;-79
2021/08/16 07:17:33;;;;;;;9.73;4.47;;;;;;;;;;2629972;30;20397;-80
2021/08/16 07:20:02;;;;;;;10.00;4.40;;;;;;;;;;2631163;38;20389;-81
2021/08/16 07:22:29;;;;;;;7.10;4.90;;;;;;;;;;2628160;38;20413;-80
2021/08/16 07:24:55;;;;;;;10.13;4.67;;;;;;;;;;2628486;30;20886;-81
2021/08/16 07:27:23;;;;;;;9.40;5.70;;;;;;;;;;2629858;38;20385;-81
2021/08/16 07:29:50;;;;;;;5.33;4.83;;;;;;;;;;2628389;30;20462;-79
2021/08/16 07:32:16;;;;;;;10.40;4.60;;;;;;;;;;2629546;30;20396;-81
2021/08/16 07:34:42;;;;;;;8.60;5.07;;;;;;;;;;2629283;38;20417;-81
2021/08/16 07:37:12;;;;;;;7.07;4.13;;;;;;;;;;2630607;30;20388;-83
2021/08/16 07:39:38;;;;;;;10.77;4.63;;;;;;;;;;2628259;38;20393;-80
2021/08/16 07:42:06;;;;;;;6.30;5.57;;;;;;;;;;2629333;30;20410;-81
2021/08/16 07:44:33;;;;;;;13.70;5.00;;;;;;;;;;2631927;38;20381;-81
2021/08/16 07:47:00;;;;;;;5.20;4.60;;;;;;;;;;2632320;30;20389;-80
2021/08/16 07:49:30;;;;;;;10.00;6.13;;;;;;;;;;2629268;38;20409;-80
2021/08/16 07:51:57;;;;;;;7.30;5.43;;;;;;;;;;2628508;38;20394;-81
2021/08/16 07:54:23;;;;;;;10.60;6.40;;;;;;;;;;2629991;38;20392;-82
2021/08/16 07:56:50;;;;;;;7.63;4.60;;;;;;;;;;2628720;38;20936;-79
2021/08/16 07:59:17;;;;;;;9.17;4.47;;;;;;;;;;2629272;38;20517;-80
2021/08/16 08:01:44;;;;;;;8.93;4.63;;;;;;;;;;2630058;30;20394;-81
2021/08/16 08:04:10;;;;;;;6.80;4.60;;;;;;;;;;2633086;38;20488;-81
2021/08/16 08:06:36;;;;;;;9.10;5.10;;;;;;;;;;2628469;30;20392;-81
2021/08/16 08:09:02;;;;;;;7.23;5.17;;;;;;;;;;2630351;38;20381;-82
2021/08/16 08:11:29;;;;;;;9.87;6.27;;;;;;;;;;2632663;30;20397;-80
2021/08/16 08:13:55;;;;;;;11.17;7.10;;;;;;;;;;2631477;38;20438;-80
2021/08/16 08:16:50;;;;;;;11.30;7.20;;;;;;;;;;2630190;38;20361;-82
2021/08/16 08:19:20;;;;;;;10.03;5.90;;;;;;;;;;2629690;38;20390;-79
2021/08/16 08:21:46;;;;;;;5.60;4.57;;;;;;;;;;2629812;38;20911;-81
2021/08/16 08:24:13;;;;;;;10.70;5.03;;;;;;;;;;2633054;30;20380;-80
2021/08/16 08:26:43;;;;;;;12.13;5.50;;;;;;;;;;2630602;30;20366;-81
2021/08/16 08:29:09;;;;;;;12.63;7.80;;;;;;;;;;2632773;30;20362;-79
2021/08/16 08:31:41;;;;;;;7.10;5.93;;;;;;;;;;2632172;30;20865;-80
2021/08/16 08:34:08;;;;;;;6.60;5.03;;;;;;;;;;2631201;38;21346;-82
2021/08/16 08:36:34;;;;;;;7.53;5.67;;;;;;;;;;2630294;30;20380;-82
2021/08/16 08:39:00;;;;;;;7.43;5.30;;;;;;;;;;2629189;31;20362;-80
2021/08/16 08:41:30;;;;;;;7.83;5.50;;;;;;;;;;2628872;38;20391;-81
2021/08/16 08:43:58;;;;;;;4.30;3.90;;;;;;;;;;2629738;38;20416;-81
2021/08/16 08:46:25;;;;;;;8.87;5.60;;;;;;;;;;2630820;30;20471;-82
2021/08/16 08:48:52;;;;;;;11.30;5.17;;;;;;;;;;2629895;46;20371;-79
2021/08/16 08:51:20;;;;;;;9.67;4.13;;;;;;;;;;2631764;30;20400;-81
2021/08/16 08:53:47;;;;;;;5.23;4.70;;;;;;;;;;2629361;38;20466;-82
2021/08/16 08:56:16;;;;;;;5.17;4.77;;;;;;;;;;2630636;30;20390;-81
2021/08/16 08:58:50;;;;;;;11.43;5.10;;;;;;;;;;2628860;38;20403;-81
2021/08/16 09:01:20;;;;;;;6.63;4.40;;;;;;;;;;2631203;30;20382;-81
2021/08/16 09:03:52;;;;;;;5.87;5.00;;;;;;;;;;2632231;38;20537;-80
2021/08/16 09:06:32;;;;;;;5.20;4.40;;;;;;;;;;2629037;38;20488;-81
2021/08/16 09:08:59;;;;;;;8.23;5.40;;;;;;;;;;2630440;38;20373;-81
2021/08/16 09:11:27;;;;;;;8.70;3.93;;;;;;;;;;2630438;30;20385;-79
2021/08/16 09:13:56;;;;;;;6.10;3.90;;;;;;;;;;2628229;38;20927;-80
2021/08/16 09:16:23;;;;;;;8.73;5.20;;;;;;;;;;2629080;38;20372;-80
2021/08/16 09:18:50;;;;;;;6.57;3.87;;;;;;;;;;2627597;30;20361;-81
2021/08/16 09:21:34;;;;;;;5.70;4.20;;;;;;;;;;2629377;38;20525;-79
2021/08/16 09:24:35;;;;;;;9.90;4.17;;;;;;;;;;2628862;38;20393;-80
2021/08/16 09:27:10;;;;;;;5.93;3.77;;;;;;;;;;2630569;30;20927;-79
2021/08/16 09:29:47;;;;;;;5.83;4.73;;;;;;;;;;2627813;38;20421;-81
2021/08/16 09:32:16;;;;;;;6.53;4.67;;;;;;;;;;2628573;38;20395;-81
2021/08/16 09:34:48;;;;;;;4.40;4.00;;;;;;;;;;2627184;38;20491;-80
2021/08/16 09:37:16;;;;;;;6.67;4.70;;;;;;;;;;2630187;30;21047;-80
2021/08/16 09:39:43;;;;;;;6.00;5.07;;;;;;;;;;2626473;30;20433;-79
2021/08/16 09:42:09;;;;;;;5.33;4.10;;;;;;;;;;2627940;38;20384;-80
2021/08/16 09:44:46;;;;;;;9.70;4.73;;;;;;;;;;2627826;30;20506;-80
2021/08/16 09:47:13;;;;;;;11.27;5.00;;;;;;;;;;2631134;30;20363;-81
2021/08/16 09:49:49;;;;;;;8.67;4.77;;;;;;;;;;2629118;30;20384;-80
2021/08/16 09:52:17;;;;;;;6.33;5.73;;;;;;;;;;2627919;38;20390;-82
2021/08/16 09:54:44;;;;;;;6.67;4.60;;;;;;;;;;2631352;30;20399;-80
2021/08/16 09:57:10;;;;;;;9.60;5.43;;;;;;;;;;2637767;30;20505;-83
2021/08/16 09:59:37;;;;;;;7.80;6.20;;;;;;;;;;2637447;38;20935;-83
2021/08/16 10:02:04;;;;;;;9.17;6.97;;;;;;;;;;2634458;38;20391;-83
2021/08/16 10:04:32;;;;;;;7.57;5.93;;;;;;;;;;2635043;38;20376;-82
2021/08/16 10:06:58;;;;;;;11.57;5.43;;;;;;;;;;2640714;30;20361;-82
2021/08/16 10:09:26;;;;;;;12.83;6.87;;;;;;;;;;2632654;38;20929;-80
2021/08/16 10:11:53;;;;;;;7.33;4.93;;;;;;;;;;2634532;30;21278;-81
2021/08/16 10:14:20;;;;;;;15.67;7.27;;;;;;;;;;2643768;30;20366;-78
2021/08/16 10:16:48;;;;;;;15.57;6.57;;;;;;;;;;2634267;38;20398;-78
2021/08/16 10:19:16;;;;;;;15.27;6.47;;;;;;;;;;2634253;38;20485;-78
2021/08/16 10:21:45;;;;;;;7.20;6.20;;;;;;;;;;2629659;38;20410;-79
2021/08/16 10:24:23;;;;;;;9.30;8.07;;;;;;;;;;2631490;30;20378;-79
2021/08/16 10:27:00;;;;;;;7.33;6.10;;;;;;;;;;2641090;30;20370;-79
2021/08/16 10:29:28;;;;;;;5.70;3.37;;;;;;;;;;2639531;38;20424;-79
2021/08/16 10:31:54;;;;;;;7.00;4.50;;;15.80;99.90;;;;;;2673151;38;21208;-79
2021/08/16 10:34:37;;;;;;;7.33;4.47;;;15.60;99.90;;;;;;2674739;38;20469;-79
2021/08/16 10:37:11;;;;;;;7.13;4.40;;;15.70;99.90;;;;;;2649310;30;20368;-80
2021/08/16 10:39:45;;;;;;;4.57;3.50;;;15.80;99.90;;;;;;2636530;30;20482;-78
2021/08/16 10:42:12;;;;;;;7.50;4.13;;;15.60;99.90;;;;;;2638384;38;20407;-79
2021/08/16 10:44:54;;;;;;;4.67;4.27;;;15.50;99.90;;;;;;2667033;30;22016;-79
2021/08/16 10:47:28;;;;;;;4.53;4.13;;;15.70;99.90;;;;;;2660724;38;20415;-80
2021/08/16 10:50:08;;;;;;;7.87;4.13;;;15.60;99.90;;;;;;2662731;38;20392;-80
2021/08/16 10:52:38;;;;;;;4.70;4.07;;;15.60;99.90;;;;;;2645252;38;20393;-80
2021/08/16 10:55:11;;;;;;;3.10;2.83;;;15.70;99.90;;;;;;2640356;38;20491;-79
2021/08/16 10:57:43;;;;;;;4.37;3.50;;;15.40;99.90;;;;;;2641358;30;21223;-81
2021/08/16 11:00:13;;;;;;;7.10;3.90;;;15.20;99.90;;;;;;2650286;38;20364;-81
2021/08/16 11:02:42;;;;;;;5.43;3.70;;;15.20;99.90;;;;;;2707299;38;20381;-82
2021/08/16 11:05:11;;;;;;;3.93;3.63;;;15.30;99.90;;;;;;2712787;30;20828;-81
2021/08/16 11:07:37;;;;;;;4.17;3.77;;;15.30;99.90;;;;;;2666925;30;20415;-81
2021/08/16 11:10:12;;;;;;;5.10;4.43;;;15.40;99.90;;;;;;2683028;30;20368;-81
2021/08/16 11:13:10;;;;;;;6.17;4.10;;;15.60;99.90;;;;;;2656747;30;20465;-82
2021/08/16 11:15:38;;;;;;;6.57;4.90;;;15.60;99.90;;;;;;2660650;30;20407;-82
2021/08/16 11:18:18;;;;;;;5.10;4.57;;;15.50;99.90;;;;;;2669336;38;20354;-83
2021/08/16 11:20:46;;;;;;;6.10;3.70;;;15.40;99.90;;;;;;2666817;38;20428;-82
2021/08/16 11:23:12;;;;;;;6.70;4.70;;;15.50;99.90;;;;;;2661702;38;20384;-82
2021/08/16 11:25:58;;;;;;;4.83;4.13;;;15.30;99.90;;;;;;2661357;30;20378;-83
2021/08/16 11:28:28;;;;;;;7.63;4.30;;;15.60;99.90;;;;;;2648788;38;20354;-82
2021/08/16 11:31:12;;;;;;;12.43;5.77;;;15.40;99.90;;;;;;2648618;38;21312;-82
2021/08/16 11:34:04;;;;;;;9.40;5.23;;;15.30;99.90;;;;;;2649114;38;20884;-82
2021/08/16 11:36:34;;;;;;;4.97;4.07;;;15.10;99.90;;;;;;2644067;38;20428;-81
2021/08/16 11:39:00;;;;;;;5.37;4.87;;;15.00;99.90;;;;;;2644929;30;20363;-81
2021/08/16 11:41:52;;;;;;;7.70;5.13;;;;;;;;;;2644211;38;20427;-81
2021/08/16 11:44:19;;;;;;;8.30;5.40;;;;;;;;;;2652143;30;21098;-81
2021/08/16 11:46:48;;;;;;;6.80;4.60;;;;;;;;;;2645402;38;20370;-81
2021/08/16 11:49:15;;;;;;;10.13;6.07;;;;;;;;;;2645858;30;21281;-81
2021/08/16 11:51:45;;;;;;;6.10;5.43;;;15.00;99.90;;;;;;2642215;38;20370;-82
2021/08/16 11:54:43;;;;;;;6.53;5.50;;;15.00;99.90;;;;;;2639543;38;20404;-81
2021/08/16 11:57:09;;;;;;;11.63;6.20;;;15.10;99.90;;;;;;2638484;38;20373;-81
2021/08/16 11:59:35;;;;;;;7.67;5.93;;;15.10;99.90;;;;;;2638720;38;20386;-81
2021/08/16 12:02:05;;;;;;;9.93;7.40;;;15.30;99.90;;;;;;2639824;30;20200;-81
2021/08/16 12:04:37;;;;;;;17.10;8.67;;;15.20;99.90;;;;;;2639942;30;20199;-81
2021/08/16 12:07:03;;;;;;;9.67;6.70;;;15.30;99.90;;;;;;2641080;38;20368;-79
2021/08/16 12:09:33;;;;;;;12.00;6.57;;;15.20;99.90;;;;;;2643111;30;20538;-81
2021/08/16 12:12:02;;;;;;;12.97;7.20;;;;;;;;;;2638388;38;20406;-81
2021/08/16 12:14:30;;;;;;;6.90;5.87;;;;;;;;;;2640432;38;20454;-81
2021/08/16 12:16:58;;;;;;;12.77;7.40;;;;;;;;;;2649592;38;20378;-81
2021/08/16 12:19:25;;;;;;;10.50;6.30;;;;;;;;;;2645684;30;20565;-81
2021/08/16 12:22:20;;;;;;;11.83;7.13;;;;;;;;;;2641598;38;20500;-81
2021/08/16 12:24:46;;;;;;;14.07;6.50;;;;;;;;;;2646981;30;21194;-80
2021/08/16 12:27:12;;;;;;;9.37;7.43;;;;;;;;;;2646270;30;20473;-80
2021/08/16 12:29:42;;;;;;;13.47;7.53;;;;;;;;;;2639121;30;20367;-81
2021/08/16 12:32:17;;;;;;;12.10;7.53;;;;;;;;;;2645459;38;20491;-81
2021/08/16 12:34:45;;;;;;;9.97;7.37;;;;;;;;;;2649557;38;20368;-80
2021/08/16 12:37:41;;;;;;;14.00;8.57;;;;;;;;;;2642181;38;20480;-80
2021/08/16 12:40:10;;;;;;;11.60;7.87;;;;;;;;;;2640048;30;20925;-80
2021/08/16 12:42:37;;;;;;;13.97;8.20;;;;;;;;;;2646104;30;20347;-80
2021/08/16 12:45:07;;;;;;;11.93;8.13;;;;;;;;;;2639422;30;20810;-81
2021/08/16 12:47:34;;;;;;;14.47;8.77;;;;;;;;;;2639005;38;21346;-81
2021/08/16 12:50:03;;;;;;;15.10;9.23;;;;;;;;;;2638348;30;21733;-80
2021/08/16 12:52:29;;;;;;;15.90;9.60;;;;;;;;;;2641115;30;20386;-81
2021/08/16 12:54:56;;;;;;;15.30;8.60;;;;;;;;;;2636900;30;20475;-81
2021/08/16 12:57:22;;;;;;;18.57;9.47;;;;;;;;;;2642579;30;20944;-81
2021/08/16 12:59:51;;;;;;;11.87;8.80;;;;;;;;;;2645149;38;20794;-81
2021/08/16 13:02:23;;;;;;;12.80;9.00;;;;;;;;;;2637059;38;20393;-81
2021/08/16 13:04:49;;;;;;;13.00;9.00;;;;;;;;;;2637200;38;20394;-81
2021/08/16 13:07:15;;;;;;;18.00;9.40;;;;;;;;;;2641030;30;20362;-81
2021/08/16 13:09:44;;;;;;;14.90;9.90;;;;;;;;;;2639554;30;20406;-81
2021/08/16 13:12:10;;;;;;;11.90;8.67;;;;;;;;;;2643759;30;20368;-81
2021/08/16 13:14:37;;;;;;;14.17;9.57;;;;;;;;;;2643337;30;20408;-81
2021/08/16 13:17:05;;;;;;;21.00;8.63;;;;;;;;;;2639807;38;20420;-82
2021/08/16 13:19:33;;;;;;;16.80;10.80;;;;;;;;;;2646238;30;21076;-82
2021/08/16 13:22:03;;;;;;;9.33;8.33;;;;;;;;;;2650856;30;20464;-81
2021/08/16 13:24:31;;;;;;;12.33;8.97;;;;;;;;;;2646644;38;20393;-81
2021/08/16 13:26:58;;;;;;;19.10;9.70;;;;;;;;;;2661610;30;20376;-81
2021/08/16 13:29:25;;;;;;;12.20;8.60;;;;;;;;;;2654610;38;20447;-82
2021/08/16 13:31:51;;;;;;;13.50;10.17;;;;;;;;;;2656019;38;20364;-81
2021/08/16 13:34:22;;;;;;;12.27;9.40;;;;;;;;;;2649502;30;20427;-82
2021/08/16 13:36:50;;;;;;;14.57;9.00;;;;;;;;;;2665225;30;20374;-81
2021/08/16 13:39:22;;;;;;;16.03;9.03;;;;;;;;;;2648444;30;20396;-82
2021/08/16 13:41:49;;;;;;;14.70;8.43;;;;;;;;;;2660601;30;20350;-81
2021/08/16 13:44:22;;;;;;;10.63;8.13;;;;;;;;;;2661877;38;20408;-81
2021/08/16 13:46:51;;;;;;;13.43;7.70;;;;;;;;;;2679675;38;20513;-81
2021/08/16 13:49:21;;;;;;;10.03;7.23;;;;;;;;;;2773567;30;20354;-81
2021/08/16 13:51:48;;;;;;;9.97;5.47;;;;;;;;;;2723109;30;20399;-81
2021/08/16 13:54:15;;;;;;;6.70;4.80;;;;;;;;;;2676973;38;20411;-82
2021/08/16 13:56:41;;;;;;;7.10;4.57;;;;;;;;;;2665460;38;20382;-82
2021/08/16 13:59:07;;;;;;;11.93;3.70;;;;;;;;;;2687394;30;20792;-80
2021/08/16 14:01:35;;;;;;;4.17;3.30;;;;;;;;;;2681954;30;20360;-81
2021/08/16 14:04:01;;;;;;;5.20;3.50;;;;;;;;;;2662093;38;20395;-81
2021/08/16 14:06:27;;;;;;;7.33;3.93;;;;;;;;;;2661142;30;22227;-82
2021/08/16 14:09:00;;;;;;;4.33;2.93;;;;;;;;;;2711990;30;20357;31
2021/08/16 14:14:07;;;;;;;7.03;3.57;;;;;;;;;;2663649;38;21785;31
2021/08/16 14:16:33;;;;;;;9.00;3.73;;;;;;;;;;2664654;30;20359;-80
2021/08/16 14:18:59;;;;;;;6.93;3.63;;;;;;;;;;2652335;30;20369;-81
2021/08/16 14:21:27;;;;;;;5.50;2.70;;;;;;;;;;2655326;30;20579;-80
2021/08/16 14:24:04;;;;;;;7.80;4.00;;;;;;;;;;2653891;30;20433;-81
2021/08/16 14:26:31;;;;;;;10.33;3.07;;;;;;;;;;2648278;30;21367;-80
2021/08/16 14:28:59;;;;;;;7.53;3.30;;;;;;;;;;2645788;30;20414;-80
2021/08/16 14:31:30;;;;;;;4.10;3.33;;;;;;;;;;2646918;38;20392;-80
2021/08/16 14:34:06;;;;;;;6.67;3.07;;;;;;;;;;2653569;30;20362;-81